CYWL

Williams Lake Airport

Williams Lake, British Columbia, Canada
METAR CYWL 190650Z 11020G27KT 10SM BKN090 01/M03 A2966 RMK AC7 SLP090
Observed Flight Rules
Jan-19 @ 06:50 UTC (21 minutes ago) Visual Flight Rules
Wind Visibility Clouds
110° at 20 knots
 Gusting to 27 knots
10 miles
  • Broken at 9,000' AGL
Temperatures Readings
Current 1°C / 34°F
Dewpoint -3°C / 27°F
Humidity 75%
Altimeter 29.66" Hg
Pressure 1009 hPa
Elevation 940
METAR CYWL 190650Z 11020G27KT 10SM BKN090 01/M03 A2966 RMK AC7 SLP090
Observed Flight Rules
Jan-19 @ 06:50 UTC
(21 minutes ago)
VFR
Wind Visibility
110° at 20 knots
 Gusting to 27 knots
10 miles
Clouds
  • Broken at 9,000' AGL
Temperature Dewpoint
1°C / 34°F -3°C / 27°F
Humidity Altimeter Pressure
75% 29.66" Hg 1009 hPa